sensor_id;sensor_type;location;lat;lon;timestamp;pressure;altitude;pressure_sealevel;temperature;humidity
22283;BME280;11310;51.528;21.204;2022-11-15T00:02:43;100422.56;;;6.97;100.00
22283;BME280;11310;51.528;21.204;2022-11-15T00:05:34;100425.22;;;6.96;100.00
22283;BME280;11310;51.528;21.204;2022-11-15T00:08:21;100415.66;;;6.96;100.00
22283;BME280;11310;51.528;21.204;2022-11-15T00:11:11;100413.09;;;6.93;100.00
22283;BME280;11310;51.528;21.204;2022-11-15T00:13:59;100411.44;;;6.91;100.00
22283;BME280;11310;51.528;21.204;2022-11-15T00:16:49;100409.63;;;6.93;100.00
22283;BME280;11310;51.528;21.204;2022-11-15T00:19:37;100402.72;;;6.92;100.00
22283;BME280;11310;51.528;21.204;2022-11-15T00:22:24;100403.56;;;6.92;100.00
22283;BME280;11310;51.528;21.204;2022-11-15T00:25:10;100394.88;;;6.92;100.00
22283;BME280;11310;51.528;21.204;2022-11-15T00:28:00;100398.41;;;6.91;100.00
22283;BME280;11310;51.528;21.204;2022-11-15T00:30:47;100401.00;;;6.91;100.00
22283;BME280;11310;51.528;21.204;2022-11-15T00:33:34;100391.38;;;6.93;100.00
22283;BME280;11310;51.528;21.204;2022-11-15T00:36:21;100393.06;;;6.95;100.00
22283;BME280;11310;51.528;21.204;2022-11-15T00:39:10;100383.47;;;6.96;100.00
22283;BME280;11310;51.528;21.204;2022-11-15T00:41:57;100383.47;;;6.96;100.00
22283;BME280;11310;51.528;21.204;2022-11-15T00:44:46;100374.94;;;6.91;100.00
22283;BME280;11310;51.528;21.204;2022-11-15T00:47:33;100361.94;;;6.88;100.00
22283;BME280;11310;51.528;21.204;2022-11-15T00:50:20;100369.78;;;6.88;100.00
22283;BME280;11310;51.528;21.204;2022-11-15T00:53:07;100355.00;;;6.88;100.00
22283;BME280;11310;51.528;21.204;2022-11-15T00:55:54;100354.00;;;6.94;100.00
22283;BME280;11310;51.528;21.204;2022-11-15T00:58:41;100354.09;;;6.89;100.00
22283;BME280;11310;51.528;21.204;2022-11-15T01:01:30;100350.59;;;6.90;100.00
22283;BME280;11310;51.528;21.204;2022-11-15T01:04:17;100345.38;;;6.90;100.00
22283;BME280;11310;51.528;21.204;2022-11-15T01:07:05;100344.72;;;6.84;100.00
22283;BME280;11310;51.528;21.204;2022-11-15T01:09:52;100341.22;;;6.83;100.00
22283;BME280;11310;51.528;21.204;2022-11-15T01:12:39;100341.22;;;6.83;100.00
22283;BME280;11310;51.528;21.204;2022-11-15T01:15:26;100335.19;;;6.81;100.00
22283;BME280;11310;51.528;21.204;2022-11-15T01:18:14;100329.94;;;6.83;100.00
22283;BME280;11310;51.528;21.204;2022-11-15T01:21:05;100323.91;;;6.81;100.00
22283;BME280;11310;51.528;21.204;2022-11-15T01:23:53;100318.78;;;6.78;100.00
22283;BME280;11310;51.528;21.204;2022-11-15T01:26:40;100320.53;;;6.77;100.00
22283;BME280;11310;51.528;21.204;2022-11-15T01:29:28;100317.97;;;6.76;100.00
22283;BME280;11310;51.528;21.204;2022-11-15T01:32:15;100311.97;;;6.72;100.00
22283;BME280;11310;51.528;21.204;2022-11-15T01:35:04;100317.19;;;6.72;100.00
22283;BME280;11310;51.528;21.204;2022-11-15T01:37:52;100307.66;;;6.70;100.00
22283;BME280;11310;51.528;21.204;2022-11-15T01:40:39;100309.41;;;6.71;100.00
22283;BME280;11310;51.528;21.204;2022-11-15T01:43:30;100304.19;;;6.71;100.00
22283;BME280;11310;51.528;21.204;2022-11-15T01:46:30;100301.72;;;6.65;100.00
22283;BME280;11310;51.528;21.204;2022-11-15T01:49:21;100305.19;;;6.65;100.00
22283;BME280;11310;51.528;21.204;2022-11-15T01:52:12;100300.00;;;6.65;100.00
22283;BME280;11310;51.528;21.204;2022-11-15T01:55:05;100293.13;;;6.61;100.00
22283;BME280;11310;51.528;21.204;2022-11-15T01:57:55;100283.59;;;6.62;100.00
22283;BME280;11310;51.528;21.204;2022-11-15T02:00:43;100287.16;;;6.58;100.00
22283;BME280;11310;51.528;21.204;2022-11-15T02:03:34;100287.31;;;6.52;100.00
22283;BME280;11310;51.528;21.204;2022-11-15T02:06:25;100286.38;;;6.54;100.00
22283;BME280;11310;51.528;21.204;2022-11-15T02:09:17;100284.66;;;6.53;100.00
22283;BME280;11310;51.528;21.204;2022-11-15T02:12:06;100283.81;;;6.53;100.00
22283;BME280;11310;51.528;21.204;2022-11-15T02:14:55;100281.25;;;6.51;100.00
22283;BME280;11310;51.528;21.204;2022-11-15T02:18:06;100271.75;;;6.49;100.00
22283;BME280;11310;51.528;21.204;2022-11-15T02:21:05;100268.31;;;6.47;100.00
22283;BME280;11310;51.528;21.204;2022-11-15T02:27:53;100275.34;;;6.45;100.00
22283;BME280;11310;51.528;21.204;2022-11-15T02:30:47;100272.69;;;6.46;100.00
22283;BME280;11310;51.528;21.204;2022-11-15T02:33:43;100269.19;;;6.47;100.00
22283;BME280;11310;51.528;21.204;2022-11-15T02:36:42;100262.31;;;6.45;100.00
22283;BME280;11310;51.528;21.204;2022-11-15T02:39:35;100259.69;;;6.45;100.00
22283;BME280;11310;51.528;21.204;2022-11-15T02:42:26;100260.50;;;6.47;100.00
22283;BME280;11310;51.528;21.204;2022-11-15T02:45:36;100264.91;;;6.45;100.00
22283;BME280;11310;51.528;21.204;2022-11-15T02:48:28;100254.53;;;6.43;100.00
22283;BME280;11310;51.528;21.204;2022-11-15T02:51:17;100253.72;;;6.41;100.00
22283;BME280;11310;51.528;21.204;2022-11-15T02:54:05;100247.66;;;6.39;100.00
22283;BME280;11310;51.528;21.204;2022-11-15T02:56:54;100245.94;;;6.40;100.00
22283;BME280;11310;51.528;21.204;2022-11-15T03:00:08;100241.63;;;6.39;100.00
22283;BME280;11310;51.528;21.204;2022-11-15T03:03:14;100228.69;;;6.34;100.00
22283;BME280;11310;51.528;21.204;2022-11-15T03:06:12;100227.03;;;6.32;100.00
22283;BME280;11310;51.528;21.204;2022-11-15T03:09:04;100219.44;;;6.23;100.00
22283;BME280;11310;51.528;21.204;2022-11-15T03:11:59;100220.56;;;6.14;100.00
22283;BME280;11310;51.528;21.204;2022-11-15T03:14:54;100218.78;;;6.15;100.00
22283;BME280;11310;51.528;21.204;2022-11-15T03:17:47;100217.00;;;6.17;100.00
22283;BME280;11310;51.528;21.204;2022-11-15T03:20:36;100211.56;;;6.26;100.00
22283;BME280;11310;51.528;21.204;2022-11-15T03:23:25;100212.31;;;6.31;100.00
22283;BME280;11310;51.528;21.204;2022-11-15T03:26:16;100212.31;;;6.31;100.00
22283;BME280;11310;51.528;21.204;2022-11-15T03:29:09;100209.13;;;6.20;100.00
22283;BME280;11310;51.528;21.204;2022-11-15T03:32:00;100210.09;;;6.16;100.00
22283;BME280;11310;51.528;21.204;2022-11-15T03:34:53;100198.09;;;6.09;100.00
22283;BME280;11310;51.528;21.204;2022-11-15T03:37:44;100193.97;;;6.02;100.00
22283;BME280;11310;51.528;21.204;2022-11-15T03:40:38;100189.56;;;6.04;100.00
22283;BME280;11310;51.528;21.204;2022-11-15T03:43:32;100190.28;;;6.09;100.00
22283;BME280;11310;51.528;21.204;2022-11-15T03:46:24;100190.22;;;6.12;100.00
22283;BME280;11310;51.528;21.204;2022-11-15T03:49:16;100178.97;;;6.10;100.00
22283;BME280;11310;51.528;21.204;2022-11-15T03:52:07;100180.78;;;6.08;100.00
22283;BME280;11310;51.528;21.204;2022-11-15T03:54:55;100174.72;;;6.07;100.00
22283;BME280;11310;51.528;21.204;2022-11-15T03:57:45;100171.16;;;6.10;100.00
22283;BME280;11310;51.528;21.204;2022-11-15T04:00:33;100169.38;;;6.13;100.00
22283;BME280;11310;51.528;21.204;2022-11-15T04:03:20;100169.28;;;6.15;100.00
22283;BME280;11310;51.528;21.204;2022-11-15T04:06:07;100159.66;;;6.20;100.00
22283;BME280;11310;51.528;21.204;2022-11-15T04:08:54;100158.00;;;6.16;100.00
22283;BME280;11310;51.528;21.204;2022-11-15T04:11:42;100157.50;;;6.02;100.00
22283;BME280;11310;51.528;21.204;2022-11-15T04:14:30;100152.53;;;5.93;100.00
22283;BME280;11310;51.528;21.204;2022-11-15T04:17:18;100143.09;;;5.89;100.00
22283;BME280;11310;51.528;21.204;2022-11-15T04:20:06;100144.00;;;5.88;100.00
22283;BME280;11310;51.528;21.204;2022-11-15T04:23:14;100145.72;;;5.87;100.00
22283;BME280;11310;51.528;21.204;2022-11-15T04:26:22;100131.78;;;5.90;100.00
22283;BME280;11310;51.528;21.204;2022-11-15T04:29:09;100142.25;;;5.87;100.00
22283;BME280;11310;51.528;21.204;2022-11-15T04:32:16;100137.22;;;5.79;100.00
22283;BME280;11310;51.528;21.204;2022-11-15T04:35:04;100137.22;;;5.79;100.00
22283;BME280;11310;51.528;21.204;2022-11-15T04:37:51;100126.94;;;5.75;100.00
22283;BME280;11310;51.528;21.204;2022-11-15T04:40:38;100132.88;;;5.80;100.00
22283;BME280;11310;51.528;21.204;2022-11-15T04:43:26;100125.94;;;5.80;100.00
22283;BME280;11310;51.528;21.204;2022-11-15T04:46:13;100127.66;;;5.81;100.00
22283;BME280;11310;51.528;21.204;2022-11-15T04:49:02;100118.94;;;5.84;100.00
22283;BME280;11310;51.528;21.204;2022-11-15T04:51:49;100116.41;;;5.79;100.00
22283;BME280;11310;51.528;21.204;2022-11-15T04:54:36;100111.28;;;5.76;100.00
22283;BME280;11310;51.528;21.204;2022-11-15T04:57:23;100117.28;;;5.78;100.00
22283;BME280;11310;51.528;21.204;2022-11-15T05:00:13;100118.97;;;5.82;100.00
22283;BME280;11310;51.528;21.204;2022-11-15T05:03:02;100112.94;;;5.80;100.00
22283;BME280;11310;51.528;21.204;2022-11-15T05:06:07;100107.09;;;5.71;100.00
22283;BME280;11310;51.528;21.204;2022-11-15T05:08:55;100105.31;;;5.71;100.00
22283;BME280;11310;51.528;21.204;2022-11-15T05:11:43;100099.28;;;5.71;100.00
22283;BME280;11310;51.528;21.204;2022-11-15T05:14:30;100105.28;;;5.73;100.00
22283;BME280;11310;51.528;21.204;2022-11-15T05:17:17;100095.72;;;5.75;100.00
22283;BME280;11310;51.528;21.204;2022-11-15T05:20:06;100096.50;;;5.77;100.00
22283;BME280;11310;51.528;21.204;2022-11-15T05:22:55;100093.97;;;5.74;100.00
22283;BME280;11310;51.528;21.204;2022-11-15T05:25:42;100085.41;;;5.70;100.00
22283;BME280;11310;51.528;21.204;2022-11-15T05:28:30;100084.56;;;5.70;100.00
22283;BME280;11310;51.528;21.204;2022-11-15T05:31:17;100086.25;;;5.71;100.00
22283;BME280;11310;51.528;21.204;2022-11-15T05:34:05;100088.84;;;5.72;100.00
22283;BME280;11310;51.528;21.204;2022-11-15T05:36:53;100084.59;;;5.68;100.00
22283;BME280;11310;51.528;21.204;2022-11-15T05:39:41;100086.41;;;5.65;100.00
22283;BME280;11310;51.528;21.204;2022-11-15T05:42:29;100079.59;;;5.61;100.00
22283;BME280;11310;51.528;21.204;2022-11-15T05:45:17;100080.53;;;5.58;100.00
22283;BME280;11310;51.528;21.204;2022-11-15T05:48:11;100073.56;;;5.59;100.00
22283;BME280;11310;51.528;21.204;2022-11-15T05:50:59;100072.66;;;5.60;100.00
22283;BME280;11310;51.528;21.204;2022-11-15T05:53:47;100077.94;;;5.57;100.00
22283;BME280;11310;51.528;21.204;2022-11-15T05:56:36;100070.22;;;5.54;100.00
22283;BME280;11310;51.528;21.204;2022-11-15T05:59:24;100071.88;;;5.56;100.00
22283;BME280;11310;51.528;21.204;2022-11-15T06:02:12;100074.63;;;5.52;100.00
22283;BME280;11310;51.528;21.204;2022-11-15T06:04:58;100077.97;;;5.55;100.00
22283;BME280;11310;51.528;21.204;2022-11-15T06:07:45;100077.94;;;5.57;100.00
22283;BME280;11310;51.528;21.204;2022-11-15T06:10:33;100080.56;;;5.57;100.00
22283;BME280;11310;51.528;21.204;2022-11-15T06:13:22;100081.34;;;5.59;100.00
22283;BME280;11310;51.528;21.204;2022-11-15T06:16:10;100078.66;;;5.63;100.00
22283;BME280;11310;51.528;21.204;2022-11-15T06:18:58;100081.47;;;5.56;100.00
22283;BME280;11310;51.528;21.204;2022-11-15T06:21:45;100085.03;;;5.52;100.00
22283;BME280;11310;51.528;21.204;2022-11-15T06:24:33;100089.38;;;5.50;100.00
22283;BME280;11310;51.528;21.204;2022-11-15T06:27:20;100084.97;;;5.53;100.00
22283;BME280;11310;51.528;21.204;2022-11-15T06:30:10;100088.41;;;5.54;100.00
22283;BME280;11310;51.528;21.204;2022-11-15T06:33:01;100091.94;;;5.53;100.00
22283;BME280;11310;51.528;21.204;2022-11-15T06:35:49;100098.84;;;5.54;100.00
22283;BME280;11310;51.528;21.204;2022-11-15T06:38:36;100097.81;;;5.61;100.00
22283;BME280;11310;51.528;21.204;2022-11-15T06:41:24;100099.47;;;5.63;100.00
22283;BME280;11310;51.528;21.204;2022-11-15T06:44:11;100106.41;;;5.63;100.00
22283;BME280;11310;51.528;21.204;2022-11-15T06:47:00;100104.78;;;5.59;100.00
22283;BME280;11310;51.528;21.204;2022-11-15T06:49:47;100103.88;;;5.60;100.00
22283;BME280;11310;51.528;21.204;2022-11-15T06:52:35;100103.09;;;5.56;100.00
22283;BME280;11310;51.528;21.204;2022-11-15T06:55:22;100101.41;;;5.55;100.00
22283;BME280;11310;51.528;21.204;2022-11-15T06:58:09;100108.31;;;5.56;100.00
22283;BME280;11310;51.528;21.204;2022-11-15T07:01:00;100102.34;;;5.53;100.00
22283;BME280;11310;51.528;21.204;2022-11-15T07:03:49;100106.59;;;5.55;100.00
22283;BME280;11310;51.528;21.204;2022-11-15T07:06:37;100107.53;;;5.53;100.00
22283;BME280;11310;51.528;21.204;2022-11-15T07:09:25;100106.59;;;5.55;100.00
22283;BME280;11310;51.528;21.204;2022-11-15T07:12:12;100113.56;;;5.53;100.00
22283;BME280;11310;51.528;21.204;2022-11-15T07:15:00;100107.63;;;5.48;100.00
22283;BME280;11310;51.528;21.204;2022-11-15T07:17:47;100111.78;;;5.57;100.00
22283;BME280;11310;51.528;21.204;2022-11-15T07:20:36;100104.97;;;5.51;100.00
22283;BME280;11310;51.528;21.204;2022-11-15T07:23:23;100108.38;;;5.53;100.00
22283;BME280;11310;51.528;21.204;2022-11-15T07:26:10;100109.06;;;5.60;100.00
22283;BME280;11310;51.528;21.204;2022-11-15T07:28:57;100104.69;;;5.63;100.00
22283;BME280;11310;51.528;21.204;2022-11-15T07:31:45;100108.94;;;5.66;100.00
22283;BME280;11310;51.528;21.204;2022-11-15T07:34:32;100111.53;;;5.67;100.00
22283;BME280;11310;51.528;21.204;2022-11-15T07:37:21;100099.53;;;5.60;100.00
22283;BME280;11310;51.528;21.204;2022-11-15T07:40:10;100094.19;;;5.65;100.00
22283;BME280;11310;51.528;21.204;2022-11-15T07:43:01;100090.53;;;5.73;100.00
22283;BME280;11310;51.528;21.204;2022-11-15T07:45:50;100081.72;;;5.79;100.00
22283;BME280;11310;51.528;21.204;2022-11-15T07:48:44;100087.59;;;5.87;100.00
22283;BME280;11310;51.528;21.204;2022-11-15T07:51:31;100078.81;;;5.91;100.00
22283;BME280;11310;51.528;21.204;2022-11-15T07:54:20;100082.13;;;5.97;100.00
22283;BME280;11310;51.528;21.204;2022-11-15T07:57:07;100077.91;;;5.92;100.00
22283;BME280;11310;51.528;21.204;2022-11-15T07:59:57;100076.13;;;5.94;100.00
22283;BME280;11310;51.528;21.204;2022-11-15T08:02:46;100076.94;;;5.96;100.00
22283;BME280;11310;51.528;21.204;2022-11-15T08:05:35;100076.94;;;5.96;100.00
22283;BME280;11310;51.528;21.204;2022-11-15T08:08:23;100070.09;;;5.92;100.00
22283;BME280;11310;51.528;21.204;2022-11-15T08:11:12;100074.31;;;5.97;100.00
22283;BME280;11310;51.528;21.204;2022-11-15T08:13:59;100073.38;;;6.00;100.00
22283;BME280;11310;51.528;21.204;2022-11-15T08:16:47;100073.31;;;6.01;100.00
22283;BME280;11310;51.528;21.204;2022-11-15T08:19:35;100073.28;;;6.03;100.00
22283;BME280;11310;51.528;21.204;2022-11-15T08:22:23;100065.22;;;6.12;100.00
22283;BME280;11310;51.528;21.204;2022-11-15T08:25:10;100061.53;;;6.19;100.00
22283;BME280;11310;51.528;21.204;2022-11-15T08:28:02;100054.59;;;6.19;100.00
22283;BME280;11310;51.528;21.204;2022-11-15T08:30:51;100057.16;;;6.21;100.00
22283;BME280;11310;51.528;21.204;2022-11-15T08:33:39;100060.69;;;6.20;100.00
22283;BME280;11310;51.528;21.204;2022-11-15T08:36:26;100053.59;;;6.25;100.00
22283;BME280;11310;51.528;21.204;2022-11-15T08:39:26;100049.34;;;6.21;100.00
22283;BME280;11310;51.528;21.204;2022-11-15T08:42:13;100052.78;;;6.21;100.00
22283;BME280;11310;51.528;21.204;2022-11-15T08:45:07;100043.88;;;6.30;100.00
22283;BME280;11310;51.528;21.204;2022-11-15T08:47:55;100041.28;;;6.30;100.00
22283;BME280;11310;51.528;21.204;2022-11-15T08:50:43;100044.94;;;6.23;100.00
22283;BME280;11310;51.528;21.204;2022-11-15T08:53:30;100044.97;;;6.21;100.00
22283;BME280;11310;51.528;21.204;2022-11-15T08:56:17;100046.06;;;6.14;100.00
22283;BME280;11310;51.528;21.204;2022-11-15T08:59:04;100048.72;;;6.13;100.00
22283;BME280;11310;51.528;21.204;2022-11-15T09:01:54;100041.66;;;6.16;100.00
22283;BME280;11310;51.528;21.204;2022-11-15T09:04:41;100032.75;;;6.25;100.00
22283;BME280;11310;51.528;21.204;2022-11-15T09:07:29;100043.84;;;6.31;100.00
22283;BME280;11310;51.528;21.204;2022-11-15T09:10:17;100037.78;;;6.31;100.00
22283;BME280;11310;51.528;21.204;2022-11-15T09:13:05;100031.66;;;6.32;100.00
22283;BME280;11310;51.528;21.204;2022-11-15T09:15:52;100027.19;;;6.35;100.00
22283;BME280;11310;51.528;21.204;2022-11-15T09:18:41;100038.19;;;6.46;100.00
22283;BME280;11310;51.528;21.204;2022-11-15T09:21:29;100032.81;;;6.51;100.00
22283;BME280;11310;51.528;21.204;2022-11-15T09:24:17;100035.38;;;6.52;100.00
22283;BME280;11310;51.528;21.204;2022-11-15T09:27:04;100028.31;;;6.56;100.00
22283;BME280;11310;51.528;21.204;2022-11-15T09:29:52;100025.50;;;6.63;100.00
22283;BME280;11310;51.528;21.204;2022-11-15T09:32:39;100027.97;;;6.68;100.00
22283;BME280;11310;51.528;21.204;2022-11-15T09:35:28;100030.56;;;6.68;100.00
22283;BME280;11310;51.528;21.204;2022-11-15T09:38:15;100027.22;;;6.64;100.00
22283;BME280;11310;51.528;21.204;2022-11-15T09:41:29;100021.22;;;6.61;100.00
22283;BME280;11310;51.528;21.204;2022-11-15T09:44:35;100014.22;;;6.63;100.00
22283;BME280;11310;51.528;21.204;2022-11-15T09:47:44;100012.41;;;6.65;100.00
22283;BME280;11310;51.528;21.204;2022-11-15T09:50:43;100003.53;;;6.72;100.00
22283;BME280;11310;51.528;21.204;2022-11-15T09:53:17;99992.22;;;6.71;100.00
22283;BME280;11310;51.528;21.204;2022-11-15T09:56:14;99997.47;;;6.70;100.00
22283;BME280;11310;51.528;21.204;2022-11-15T09:58:54;99987.13;;;6.68;100.00
22283;BME280;11310;51.528;21.204;2022-11-15T10:01:37;99991.47;;;6.68;100.00
22283;BME280;11310;51.528;21.204;2022-11-15T10:04:10;99982.75;;;6.69;100.00
22283;BME280;11310;51.528;21.204;2022-11-15T10:06:44;99981.50;;;6.80;100.00
22283;BME280;11310;51.528;21.204;2022-11-15T10:09:23;99975.09;;;6.90;100.00
22283;BME280;11310;51.528;21.204;2022-11-15T10:11:54;99967.94;;;6.97;100.00
22283;BME280;11310;51.528;21.204;2022-11-15T10:14:24;99965.41;;;6.95;100.00
22283;BME280;11310;51.528;21.204;2022-11-15T10:17:27;99954.31;;;6.89;100.00
22283;BME280;11310;51.528;21.204;2022-11-15T10:20:10;99942.84;;;6.93;100.00
22283;BME280;11310;51.528;21.204;2022-11-15T10:22:45;99940.16;;;6.96;100.00
22283;BME280;11310;51.528;21.204;2022-11-15T10:25:19;99941.56;;;7.06;100.00
22283;BME280;11310;51.528;21.204;2022-11-15T10:27:53;99937.94;;;7.10;100.00
22283;BME280;11310;51.528;21.204;2022-11-15T10:30:30;99941.41;;;7.10;100.00
22283;BME280;11310;51.528;21.204;2022-11-15T10:33:10;99938.69;;;7.13;100.00
22283;BME280;11310;51.528;21.204;2022-11-15T10:35:40;99938.38;;;7.22;100.00
22283;BME280;11310;51.528;21.204;2022-11-15T10:38:12;99938.84;;;7.35;100.00
22283;BME280;11310;51.528;21.204;2022-11-15T10:40:41;99929.78;;;7.45;100.00
22283;BME280;11310;51.528;21.204;2022-11-15T10:43:15;99938.41;;;7.47;100.00
22283;BME280;11310;51.528;21.204;2022-11-15T10:45:45;99925.16;;;7.53;100.00
22283;BME280;11310;51.528;21.204;2022-11-15T10:48:24;99922.63;;;7.74;100.00
22283;BME280;11310;51.528;21.204;2022-11-15T10:50:55;99927.16;;;7.92;100.00
22283;BME280;11310;51.528;21.204;2022-11-15T10:53:29;99918.81;;;8.06;100.00
22283;BME280;11310;51.528;21.204;2022-11-15T10:56:02;99910.97;;;8.06;100.00
22283;BME280;11310;51.528;21.204;2022-11-15T10:58:37;99909.22;;;8.06;100.00
22283;BME280;11310;51.528;21.204;2022-11-15T11:01:15;99902.31;;;8.05;100.00
22283;BME280;11310;51.528;21.204;2022-11-15T11:03:45;99906.06;;;8.20;100.00
22283;BME280;11310;51.528;21.204;2022-11-15T11:06:15;99904.69;;;8.56;100.00
22283;BME280;11310;51.528;21.204;2022-11-15T11:08:55;99902.13;;;8.76;100.00
22283;BME280;11310;51.528;21.204;2022-11-15T11:11:24;99899.44;;;8.77;100.00
22283;BME280;11310;51.528;21.204;2022-11-15T11:13:53;99891.91;;;8.70;100.00
22283;BME280;11310;51.528;21.204;2022-11-15T11:16:37;99882.72;;;8.60;100.00
22283;BME280;11310;51.528;21.204;2022-11-15T11:19:27;99883.81;;;8.54;100.00
22283;BME280;11310;51.528;21.204;2022-11-15T11:22:05;99883.66;;;8.59;100.00
22283;BME280;11310;51.528;21.204;2022-11-15T11:24:44;99881.25;;;8.74;100.00
22283;BME280;11310;51.528;21.204;2022-11-15T11:27:25;99866.31;;;8.56;100.00
22283;BME280;11310;51.528;21.204;2022-11-15T11:30:09;99860.84;;;8.41;100.00
22283;BME280;11310;51.528;21.204;2022-11-15T11:36:01;99867.47;;;8.28;100.00
22283;BME280;11310;51.528;21.204;2022-11-15T11:38:40;99858.31;;;8.16;100.00
22283;BME280;11310;51.528;21.204;2022-11-15T11:41:23;99851.41;;;8.15;100.00
22283;BME280;11310;51.528;21.204;2022-11-15T11:44:04;99847.97;;;8.13;100.00
22283;BME280;11310;51.528;21.204;2022-11-15T11:46:48;99840.75;;;8.20;100.00
22283;BME280;11310;51.528;21.204;2022-11-15T11:49:23;99832.09;;;8.19;100.00
22283;BME280;11310;51.528;21.204;2022-11-15T11:51:55;99830.16;;;8.24;100.00
22283;BME280;11310;51.528;21.204;2022-11-15T11:57:24;99822.38;;;8.44;100.00
22283;BME280;11310;51.528;21.204;2022-11-15T12:00:00;99828.84;;;8.97;100.00
22283;BME280;11310;51.528;21.204;2022-11-15T12:02:41;99828.25;;;8.91;100.00
22283;BME280;11310;51.528;21.204;2022-11-15T12:05:11;99828.16;;;8.72;100.00
22283;BME280;11310;51.528;21.204;2022-11-15T12:07:43;99813.97;;;8.58;100.00
22283;BME280;11310;51.528;21.204;2022-11-15T12:10:19;99810.00;;;8.48;100.00
22283;BME280;11310;51.528;21.204;2022-11-15T12:12:56;99807.00;;;8.37;100.00
22283;BME280;11310;51.528;21.204;2022-11-15T12:15:30;99809.13;;;8.27;100.00
22283;BME280;11310;51.528;21.204;2022-11-15T12:18:00;99804.16;;;8.21;100.00
22283;BME280;11310;51.528;21.204;2022-11-15T12:20:34;99816.25;;;8.24;100.00
22283;BME280;11310;51.528;21.204;2022-11-15T12:23:12;99805.63;;;8.28;100.00
22283;BME280;11310;51.528;21.204;2022-11-15T12:25:47;99792.56;;;8.28;100.00
22283;BME280;11310;51.528;21.204;2022-11-15T12:28:34;99799.47;;;8.29;100.00
22283;BME280;11310;51.528;21.204;2022-11-15T12:31:31;99805.63;;;8.28;100.00
22283;BME280;11310;51.528;21.204;2022-11-15T12:34:15;99797.03;;;8.25;100.00
22283;BME280;11310;51.528;21.204;2022-11-15T12:36:44;99790.91;;;8.26;100.00
22283;BME280;11310;51.528;21.204;2022-11-15T12:39:14;99785.69;;;8.26;100.00
22283;BME280;11310;51.528;21.204;2022-11-15T12:41:44;99787.34;;;8.28;100.00
22283;BME280;11310;51.528;21.204;2022-11-15T12:47:23;99781.13;;;8.31;100.00
22283;BME280;11310;51.528;21.204;2022-11-15T12:49:53;99774.06;;;8.33;100.00
22283;BME280;11310;51.528;21.204;2022-11-15T12:52:21;99772.16;;;8.36;100.00
22283;BME280;11310;51.528;21.204;2022-11-15T12:54:58;99770.28;;;8.40;100.00
22283;BME280;11310;51.528;21.204;2022-11-15T12:57:38;99765.72;;;8.45;100.00
22283;BME280;11310;51.528;21.204;2022-11-15T13:03:25;99770.69;;;8.51;100.00
22283;BME280;11310;51.528;21.204;2022-11-15T13:06:09;99760.13;;;8.54;100.00
22283;BME280;11310;51.528;21.204;2022-11-15T13:08:58;99760.94;;;8.54;100.00
22283;BME280;11310;51.528;21.204;2022-11-15T13:11:51;99758.38;;;8.53;100.00
22283;BME280;11310;51.528;21.204;2022-11-15T13:14:43;99760.34;;;8.48;100.00
22283;BME280;11310;51.528;21.204;2022-11-15T13:17:32;99749.25;;;8.43;100.00
22283;BME280;11310;51.528;21.204;2022-11-15T13:20:26;99747.66;;;8.39;100.00
22283;BME280;11310;51.528;21.204;2022-11-15T13:23:02;99753.03;;;8.36;100.00
22283;BME280;11310;51.528;21.204;2022-11-15T13:25:57;99755.78;;;8.33;100.00
22283;BME280;11310;51.528;21.204;2022-11-15T13:28:34;99753.22;;;8.31;100.00
22283;BME280;11310;51.528;21.204;2022-11-15T13:31:25;99750.66;;;8.30;100.00
22283;BME280;11310;51.528;21.204;2022-11-15T13:33:58;99750.81;;;8.27;100.00
22283;BME280;11310;51.528;21.204;2022-11-15T13:36:29;99752.56;;;8.26;100.00
22283;BME280;11310;51.528;21.204;2022-11-15T13:39:03;99744.00;;;8.23;100.00
22283;BME280;11310;51.528;21.204;2022-11-15T13:41:33;99752.69;;;8.23;100.00
22283;BME280;11310;51.528;21.204;2022-11-15T13:44:04;99746.69;;;8.20;100.00
22283;BME280;11310;51.528;21.204;2022-11-15T13:46:48;99741.66;;;8.15;100.00
22283;BME280;11310;51.528;21.204;2022-11-15T13:49:17;99746.19;;;8.12;100.00
22283;BME280;11310;51.528;21.204;2022-11-15T13:51:47;99741.97;;;8.08;100.00
22283;BME280;11310;51.528;21.204;2022-11-15T13:54:18;99736.22;;;8.00;100.00
22283;BME280;11310;51.528;21.204;2022-11-15T13:56:52;99730.31;;;7.95;100.00
22283;BME280;11310;51.528;21.204;2022-11-15T13:59:25;99729.66;;;7.90;100.00
22283;BME280;11310;51.528;21.204;2022-11-15T14:01:56;99729.78;;;7.87;100.00
22283;BME280;11310;51.528;21.204;2022-11-15T14:04:27;99723.13;;;7.80;100.00
22283;BME280;11310;51.528;21.204;2022-11-15T14:07:02;99725.78;;;7.78;100.00
22283;BME280;11310;51.528;21.204;2022-11-15T14:09:37;99719.94;;;7.72;100.00
22283;BME280;11310;51.528;21.204;2022-11-15T14:12:33;99721.13;;;7.63;100.00
22283;BME280;11310;51.528;21.204;2022-11-15T14:15:24;99717.13;;;7.55;100.00
22283;BME280;11310;51.528;21.204;2022-11-15T14:17:59;99720.00;;;7.49;100.00
22283;BME280;11310;51.528;21.204;2022-11-15T14:20:38;99721.13;;;7.42;100.00
22283;BME280;11310;51.528;21.204;2022-11-15T14:23:25;99715.28;;;7.35;100.00
22283;BME280;11310;51.528;21.204;2022-11-15T14:26:00;99713.69;;;7.31;100.00
22283;BME280;11310;51.528;21.204;2022-11-15T14:28:44;99704.34;;;7.26;100.00
22283;BME280;11310;51.528;21.204;2022-11-15T14:31:23;99701.13;;;7.19;100.00
22283;BME280;11310;51.528;21.204;2022-11-15T14:33:56;99699.69;;;7.11;100.00
22283;BME280;11310;51.528;21.204;2022-11-15T14:36:25;99698.28;;;7.02;100.00